KFKL/FKL METAR and TAF weather

Enter ICAO airport designator
Station Type Date Time Source
KFKL METAR 2019/08/25 07:56 UTC NOAA

KFKL 250756Z AUTO 08004KT 10SM CLR 11/10 A3026 RMK AO2 SLP246 T01060100


Station Type Date Time Source
KFKL Decoded METAR 2019/08/25 07:56 UTC NOAA

Station name not available
Aug 25, 2019 - 03:56 AM EDT / 2019.08.25 0756 UTC
Wind: from the E (080 degrees) at 5 MPH (4 KT):0
Visibility: 10 mile(s):0
Sky conditions: clear
Temperature: 51.1 F (10.6 C)
Dew Point: 50.0 F (10.0 C)
Relative Humidity: 96%
Pressure (altimeter): 30.26 in. Hg (1024 hPa)
ob: KFKL 250756Z AUTO 08004KT 10SM CLR 11/10 A3026 RMK AO2 SLP246 T01060100
cycle: 8

Station Type Date Time Source
KFKL TAF 2019/08/25 06:22 UTC NOAA

TAF KFKL 250520Z 2506/2606 VRB03KT P6SM SKC
FM251400 11009KT P6SM SKC

Example: see airport list